sensor_id;sensor_type;location;lat;lon;timestamp;pressure;altitude;pressure_sealevel;temperature;humidity
5609;BME280;2826;51.354;9.588;2023-02-28T00:00:37;99395.88;;;1.07;55.53
5609;BME280;2826;51.354;9.588;2023-02-28T00:03:04;99405.28;;;1.09;55.41
5609;BME280;2826;51.354;9.588;2023-02-28T00:05:30;99400.94;;;1.05;55.19
5609;BME280;2826;51.354;9.588;2023-02-28T00:07:57;99395.84;;;1.05;55.56
5609;BME280;2826;51.354;9.588;2023-02-28T00:10:27;99398.31;;;1.02;55.53
5609;BME280;2826;51.354;9.588;2023-02-28T00:12:58;99396.53;;;0.98;55.73
5609;BME280;2826;51.354;9.588;2023-02-28T00:15:25;99398.25;;;0.97;55.76
5609;BME280;2826;51.354;9.588;2023-02-28T00:17:52;99401.59;;;0.96;55.76
5609;BME280;2826;51.354;9.588;2023-02-28T00:20:19;99398.19;;;0.94;55.51
5609;BME280;2826;51.354;9.588;2023-02-28T00:22:48;99403.22;;;0.91;54.89
5609;BME280;2826;51.354;9.588;2023-02-28T00:25:16;99400.72;;;0.94;54.62
5609;BME280;2826;51.354;9.588;2023-02-28T00:27:45;99405.88;;;0.96;54.12
5609;BME280;2826;51.354;9.588;2023-02-28T00:30:14;99398.28;;;0.99;54.31
5609;BME280;2826;51.354;9.588;2023-02-28T00:32:41;99400.88;;;1.02;54.29
5609;BME280;2826;51.354;9.588;2023-02-28T00:35:09;99405.19;;;1.03;54.63
5609;BME280;2826;51.354;9.588;2023-02-28T00:37:35;99403.44;;;1.02;54.42
5609;BME280;2826;51.354;9.588;2023-02-28T00:40:05;99401.72;;;1.01;54.82
5609;BME280;2826;51.354;9.588;2023-02-28T00:42:33;99382.75;;;0.88;54.72
5609;BME280;2826;51.354;9.588;2023-02-28T00:45:01;99407.66;;;1.00;54.82
5609;BME280;2826;51.354;9.588;2023-02-28T00:47:29;99401.69;;;0.99;55.05
5609;BME280;2826;51.354;9.588;2023-02-28T00:49:56;99402.47;;;0.97;55.27
5609;BME280;2826;51.354;9.588;2023-02-28T00:52:24;99408.47;;;0.97;55.43
5609;BME280;2826;51.354;9.588;2023-02-28T00:54:50;99405.00;;;0.95;55.15
5609;BME280;2826;51.354;9.588;2023-02-28T00:57:17;99404.09;;;0.91;55.23
5609;BME280;2826;51.354;9.588;2023-02-28T00:59:43;99403.19;;;0.88;55.13
5609;BME280;2826;51.354;9.588;2023-02-28T01:02:11;99406.31;;;0.76;54.96
5609;BME280;2826;51.354;9.588;2023-02-28T01:04:38;99414.78;;;0.72;55.39
5609;BME280;2826;51.354;9.588;2023-02-28T01:07:05;99411.34;;;0.71;55.80
5609;BME280;2826;51.354;9.588;2023-02-28T01:09:31;99388.09;;;0.57;55.82
5609;BME280;2826;51.354;9.588;2023-02-28T01:11:58;99405.38;;;0.71;55.84
5609;BME280;2826;51.354;9.588;2023-02-28T01:14:25;99398.44;;;0.63;55.85
5609;BME280;2826;51.354;9.588;2023-02-28T01:16:51;99411.28;;;0.68;55.96
5609;BME280;2826;51.354;9.588;2023-02-28T01:19:19;99401.91;;;0.67;55.84
5609;BME280;2826;51.354;9.588;2023-02-28T01:21:46;99414.69;;;0.67;56.07
5609;BME280;2826;51.354;9.588;2023-02-28T01:24:13;99404.47;;;0.67;55.93
5609;BME280;2826;51.354;9.588;2023-02-28T01:26:39;99405.31;;;0.66;56.00
5609;BME280;2826;51.354;9.588;2023-02-28T01:29:06;99386.41;;;0.58;55.93
5609;BME280;2826;51.354;9.588;2023-02-28T01:31:33;99347.56;;;0.30;56.24
5609;BME280;2826;51.354;9.588;2023-02-28T01:34:00;99399.16;;;0.58;56.17
5609;BME280;2826;51.354;9.588;2023-02-28T01:36:29;99400.88;;;0.59;56.09
5609;BME280;2826;51.354;9.588;2023-02-28T01:38:56;99400.88;;;0.59;56.27
5609;BME280;2826;51.354;9.588;2023-02-28T01:41:24;99398.25;;;0.56;56.13
5609;BME280;2826;51.354;9.588;2023-02-28T01:43:58;99401.66;;;0.55;56.27
5609;BME280;2826;51.354;9.588;2023-02-28T01:46:29;99398.16;;;0.49;56.28
5609;BME280;2826;51.354;9.588;2023-02-28T01:49:00;99391.31;;;0.48;56.36
5609;BME280;2826;51.354;9.588;2023-02-28T01:51:36;99392.09;;;0.44;56.46
5609;BME280;2826;51.354;9.588;2023-02-28T01:54:07;99378.34;;;0.37;56.59
5609;BME280;2826;51.354;9.588;2023-02-28T01:56:43;99373.28;;;0.39;56.53
5609;BME280;2826;51.354;9.588;2023-02-28T01:59:14;99381.69;;;0.35;56.62
5609;BME280;2826;51.354;9.588;2023-02-28T02:01:45;99379.09;;;0.33;56.73
5609;BME280;2826;51.354;9.588;2023-02-28T02:04:12;99382.53;;;0.34;56.50
5609;BME280;2826;51.354;9.588;2023-02-28T02:06:43;99356.75;;;0.21;56.58
5609;BME280;2826;51.354;9.588;2023-02-28T02:09:11;99375.72;;;0.34;56.49
5609;BME280;2826;51.354;9.588;2023-02-28T02:11:39;99364.59;;;0.31;56.46
5609;BME280;2826;51.354;9.588;2023-02-28T02:14:29;99376.69;;;0.41;56.05
5609;BME280;2826;51.354;9.588;2023-02-28T02:17:07;99374.78;;;0.31;56.24
5609;BME280;2826;51.354;9.588;2023-02-28T02:19:52;99375.66;;;0.33;56.67
5609;BME280;2826;51.354;9.588;2023-02-28T02:22:49;99374.03;;;0.35;56.54
5609;BME280;2826;51.354;9.588;2023-02-28T02:25:27;99368.16;;;0.39;56.80
5609;BME280;2826;51.354;9.588;2023-02-28T02:28:14;99363.81;;;0.35;56.75
5609;BME280;2826;51.354;9.588;2023-02-28T02:31:26;99373.31;;;0.41;56.59
5609;BME280;2826;51.354;9.588;2023-02-28T02:37:11;99373.38;;;0.45;56.50
5609;BME280;2826;51.354;9.588;2023-02-28T02:39:48;99364.97;;;0.49;56.47
5609;BME280;2826;51.354;9.588;2023-02-28T02:42:21;99369.22;;;0.50;56.29
5609;BME280;2826;51.354;9.588;2023-02-28T02:44:56;99363.31;;;0.53;56.21
5609;BME280;2826;51.354;9.588;2023-02-28T02:47:26;99341.81;;;0.40;56.31
5609;BME280;2826;51.354;9.588;2023-02-28T02:49:57;99365.84;;;0.50;56.72
5609;BME280;2826;51.354;9.588;2023-02-28T02:52:31;99345.16;;;0.37;56.61
5609;BME280;2826;51.354;9.588;2023-02-28T02:55:02;99372.75;;;0.56;56.33
5609;BME280;2826;51.354;9.588;2023-02-28T02:57:32;99365.94;;;0.56;56.26
5609;BME280;2826;51.354;9.588;2023-02-28T03:00:02;99361.66;;;0.54;56.24
5609;BME280;2826;51.354;9.588;2023-02-28T03:02:31;99371.97;;;0.58;56.34
5609;BME280;2826;51.354;9.588;2023-02-28T03:05:03;99368.53;;;0.58;56.35
5609;BME280;2826;51.354;9.588;2023-02-28T03:07:32;99365.22;;;0.62;56.39
5609;BME280;2826;51.354;9.588;2023-02-28T03:09:58;99365.22;;;0.62;56.26
5609;BME280;2826;51.354;9.588;2023-02-28T03:12:32;99364.41;;;0.64;56.13
5609;BME280;2826;51.354;9.588;2023-02-28T03:15:10;99357.63;;;0.67;55.78
5609;BME280;2826;51.354;9.588;2023-02-28T03:18:00;99357.59;;;0.63;55.94
5609;BME280;2826;51.354;9.588;2023-02-28T03:20:36;99362.75;;;0.67;55.96
5609;BME280;2826;51.354;9.588;2023-02-28T03:23:13;99359.34;;;0.66;56.10
5609;BME280;2826;51.354;9.588;2023-02-28T03:25:54;99357.63;;;0.67;56.03
5609;BME280;2826;51.354;9.588;2023-02-28T03:28:30;99354.22;;;0.64;56.16
5609;BME280;2826;51.354;9.588;2023-02-28T03:31:00;99343.84;;;0.57;56.22
5609;BME280;2826;51.354;9.588;2023-02-28T03:33:32;99354.22;;;0.64;56.20
5609;BME280;2826;51.354;9.588;2023-02-28T03:36:07;99357.63;;;0.67;56.10
5609;BME280;2826;51.354;9.588;2023-02-28T03:38:38;99361.94;;;0.68;56.04
5609;BME280;2826;51.354;9.588;2023-02-28T03:41:10;99362.75;;;0.65;55.26
5609;BME280;2826;51.354;9.588;2023-02-28T03:43:43;99356.78;;;0.66;55.51
5609;BME280;2826;51.354;9.588;2023-02-28T03:46:13;99361.00;;;0.64;55.64
5609;BME280;2826;51.354;9.588;2023-02-28T03:48:44;99368.72;;;0.67;55.29
5609;BME280;2826;51.354;9.588;2023-02-28T03:51:17;99349.75;;;0.56;55.18
5609;BME280;2826;51.354;9.588;2023-02-28T03:53:49;99361.88;;;0.64;54.98
5609;BME280;2826;51.354;9.588;2023-02-28T03:56:20;99361.88;;;0.64;54.69
5609;BME280;2826;51.354;9.588;2023-02-28T03:58:51;99366.97;;;0.64;54.43
5609;BME280;2826;51.354;9.588;2023-02-28T04:01:23;99354.22;;;0.64;54.03
5609;BME280;2826;51.354;9.588;2023-02-28T04:03:52;99358.44;;;0.64;54.18
5609;BME280;2826;51.354;9.588;2023-02-28T04:06:21;99363.50;;;0.61;54.42
5609;BME280;2826;51.354;9.588;2023-02-28T04:08:49;99357.47;;;0.57;54.90
5609;BME280;2826;51.354;9.588;2023-02-28T04:11:22;99316.72;;;0.19;55.84
5609;BME280;2826;51.354;9.588;2023-02-28T04:13:50;99376.88;;;0.50;55.66
5609;BME280;2826;51.354;9.588;2023-02-28T04:16:16;99374.28;;;0.47;55.83
5609;BME280;2826;51.354;9.588;2023-02-28T04:18:43;99376.00;;;0.48;55.52
5609;BME280;2826;51.354;9.588;2023-02-28T04:21:10;99380.22;;;0.46;55.55
5609;BME280;2826;51.354;9.588;2023-02-28T04:23:38;99376.69;;;0.41;55.88
5609;BME280;2826;51.354;9.588;2023-02-28T04:26:05;99379.25;;;0.41;55.58
5609;BME280;2826;51.354;9.588;2023-02-28T04:28:32;99374.19;;;0.43;55.62
5609;BME280;2826;51.354;9.588;2023-02-28T04:31:02;99376.78;;;0.44;55.38
5609;BME280;2826;51.354;9.588;2023-02-28T04:33:30;99381.00;;;0.44;55.08
5609;BME280;2826;51.354;9.588;2023-02-28T04:36:01;99364.47;;;0.26;55.40
5609;BME280;2826;51.354;9.588;2023-02-28T04:38:28;99381.69;;;0.35;55.47
5609;BME280;2826;51.354;9.588;2023-02-28T04:40:58;99382.44;;;0.31;55.84
5609;BME280;2826;51.354;9.588;2023-02-28T04:43:26;99379.91;;;0.31;55.85
5609;BME280;2826;51.354;9.588;2023-02-28T04:45:53;99376.44;;;0.27;55.97
5609;BME280;2826;51.354;9.588;2023-02-28T04:48:21;99380.56;;;0.23;56.14
5609;BME280;2826;51.354;9.588;2023-02-28T04:50:53;99376.22;;;0.19;56.46
5609;BME280;2826;51.354;9.588;2023-02-28T04:53:27;99382.19;;;0.18;56.57
5609;BME280;2826;51.354;9.588;2023-02-28T04:55:54;99373.63;;;0.16;56.53
5609;BME280;2826;51.354;9.588;2023-02-28T04:58:22;99384.53;;;0.09;57.01
5609;BME280;2826;51.354;9.588;2023-02-28T05:00:49;99373.44;;;0.07;56.89
5609;BME280;2826;51.354;9.588;2023-02-28T05:03:16;99386.28;;;0.11;56.93
5609;BME280;2826;51.354;9.588;2023-02-28T05:05:42;99382.09;;;0.14;56.73
5609;BME280;2826;51.354;9.588;2023-02-28T05:08:09;99387.16;;;0.12;56.96
5609;BME280;2826;51.354;9.588;2023-02-28T05:10:36;99388.88;;;0.13;57.02
5609;BME280;2826;51.354;9.588;2023-02-28T05:13:02;99391.47;;;0.15;57.27
5609;BME280;2826;51.354;9.588;2023-02-28T05:15:30;99395.84;;;0.20;57.18
5609;BME280;2826;51.354;9.588;2023-02-28T05:17:58;99397.59;;;0.23;57.02
5609;BME280;2826;51.354;9.588;2023-02-28T05:20:25;99402.75;;;0.26;57.27
5609;BME280;2826;51.354;9.588;2023-02-28T05:22:52;99394.28;;;0.29;56.88
5609;BME280;2826;51.354;9.588;2023-02-28T05:25:20;99390.94;;;0.31;56.74
5609;BME280;2826;51.354;9.588;2023-02-28T05:27:47;99397.03;;;0.38;56.65
5609;BME280;2826;51.354;9.588;2023-02-28T05:30:14;99392.91;;;0.43;56.76
5609;BME280;2826;51.354;9.588;2023-02-28T05:32:42;99393.00;;;0.48;57.50
5609;BME280;2826;51.354;9.588;2023-02-28T05:35:10;99393.94;;;0.51;58.99
5609;BME280;2826;51.354;9.588;2023-02-28T05:37:37;99400.81;;;0.54;59.76
5609;BME280;2826;51.354;9.588;2023-02-28T05:40:06;99396.63;;;0.58;60.49
5609;BME280;2826;51.354;9.588;2023-02-28T05:42:35;99403.47;;;0.60;60.53
5609;BME280;2826;51.354;9.588;2023-02-28T05:45:02;99400.97;;;0.62;60.95
5609;BME280;2826;51.354;9.588;2023-02-28T05:47:29;99401.78;;;0.61;61.07
5609;BME280;2826;51.354;9.588;2023-02-28T05:49:57;99406.91;;;0.62;61.54
5609;BME280;2826;51.354;9.588;2023-02-28T05:52:23;99405.31;;;0.66;61.30
5609;BME280;2826;51.354;9.588;2023-02-28T05:54:50;99407.75;;;0.61;61.84
5609;BME280;2826;51.354;9.588;2023-02-28T05:57:17;99406.91;;;0.61;61.70
5609;BME280;2826;51.354;9.588;2023-02-28T05:59:43;99407.72;;;0.60;61.88
5609;BME280;2826;51.354;9.588;2023-02-28T06:02:12;99398.34;;;0.59;61.99
5609;BME280;2826;51.354;9.588;2023-02-28T06:04:39;99403.50;;;0.62;61.84
5609;BME280;2826;51.354;9.588;2023-02-28T06:07:07;99387.91;;;0.48;61.23
5609;BME280;2826;51.354;9.588;2023-02-28T06:09:34;99412.03;;;0.64;61.27
5609;BME280;2826;51.354;9.588;2023-02-28T06:12:01;99410.34;;;0.63;61.10
5609;BME280;2826;51.354;9.588;2023-02-28T06:14:31;99411.16;;;0.62;61.27
5609;BME280;2826;51.354;9.588;2023-02-28T06:16:58;99417.13;;;0.61;61.38
5609;BME280;2826;51.354;9.588;2023-02-28T06:19:25;99430.75;;;0.63;61.41
5609;BME280;2826;51.354;9.588;2023-02-28T06:21:53;99426.50;;;0.62;60.15
5609;BME280;2826;51.354;9.588;2023-02-28T06:24:21;99425.66;;;0.63;59.82
5609;BME280;2826;51.354;9.588;2023-02-28T06:26:49;99420.66;;;0.69;59.89
5609;BME280;2826;51.354;9.588;2023-02-28T06:29:16;99425.91;;;0.75;59.65
5609;BME280;2826;51.354;9.588;2023-02-28T06:31:44;99424.97;;;0.70;58.73
5609;BME280;2826;51.354;9.588;2023-02-28T06:34:11;99421.66;;;0.74;58.54
5609;BME280;2826;51.354;9.588;2023-02-28T06:36:56;99427.69;;;0.80;58.70
5609;BME280;2826;51.354;9.588;2023-02-28T06:39:28;99425.09;;;0.78;58.57
5609;BME280;2826;51.354;9.588;2023-02-28T06:41:55;99431.97;;;0.81;58.55
5609;BME280;2826;51.354;9.588;2023-02-28T06:44:22;99431.31;;;0.91;58.67
5609;BME280;2826;51.354;9.588;2023-02-28T06:46:49;99434.81;;;0.95;58.59
5609;BME280;2826;51.354;9.588;2023-02-28T06:49:16;99429.69;;;0.95;58.42
5609;BME280;2826;51.354;9.588;2023-02-28T06:51:44;99434.00;;;0.97;58.46
5609;BME280;2826;51.354;9.588;2023-02-28T06:54:11;99440.00;;;0.99;58.50
5609;BME280;2826;51.354;9.588;2023-02-28T06:56:40;99445.09;;;0.99;58.69
5609;BME280;2826;51.354;9.588;2023-02-28T06:59:06;99439.16;;;1.00;58.59
5609;BME280;2826;51.354;9.588;2023-02-28T07:01:55;99436.75;;;1.07;58.29
5609;BME280;2826;51.354;9.588;2023-02-28T07:04:22;99425.41;;;0.92;57.96
5609;BME280;2826;51.354;9.588;2023-02-28T07:06:49;99440.19;;;1.10;57.37
5609;BME280;2826;51.354;9.588;2023-02-28T07:09:16;99443.81;;;1.20;57.97
5609;BME280;2826;51.354;9.588;2023-02-28T07:11:46;99438.78;;;1.26;57.47
5609;BME280;2826;51.354;9.588;2023-02-28T07:14:12;99438.03;;;1.30;57.33
5609;BME280;2826;51.354;9.588;2023-02-28T07:16:39;99439.09;;;1.42;56.95
5609;BME280;2826;51.354;9.588;2023-02-28T07:19:06;99445.22;;;1.50;57.03
5609;BME280;2826;51.354;9.588;2023-02-28T07:21:33;99441.97;;;1.61;56.74
5609;BME280;2826;51.354;9.588;2023-02-28T07:24:00;99433.53;;;1.65;56.00
5609;BME280;2826;51.354;9.588;2023-02-28T07:26:26;99445.56;;;1.72;55.32
5609;BME280;2826;51.354;9.588;2023-02-28T07:28:54;99445.41;;;1.63;54.81
5609;BME280;2826;51.354;9.588;2023-02-28T07:31:21;99444.59;;;1.65;54.93
5609;BME280;2826;51.354;9.588;2023-02-28T07:33:47;99444.56;;;1.62;54.50
5609;BME280;2826;51.354;9.588;2023-02-28T07:36:16;99446.22;;;1.60;54.79
5609;BME280;2826;51.354;9.588;2023-02-28T07:38:46;99450.50;;;1.63;54.92
5609;BME280;2826;51.354;9.588;2023-02-28T07:41:14;99448.94;;;1.68;55.00
5609;BME280;2826;51.354;9.588;2023-02-28T07:43:40;99444.69;;;1.70;54.41
5609;BME280;2826;51.354;9.588;2023-02-28T07:46:10;99447.16;;;1.64;54.17
5609;BME280;2826;51.354;9.588;2023-02-28T07:48:38;99452.38;;;1.72;54.09
5609;BME280;2826;51.354;9.588;2023-02-28T07:51:05;99428.47;;;1.68;54.02
5609;BME280;2826;51.354;9.588;2023-02-28T07:53:32;99453.50;;;1.88;53.48
5609;BME280;2826;51.354;9.588;2023-02-28T07:56:00;99448.47;;;1.94;53.64
5609;BME280;2826;51.354;9.588;2023-02-28T07:58:27;99462.16;;;1.96;53.50
5609;BME280;2826;51.354;9.588;2023-02-28T08:00:55;99459.00;;;2.11;53.21
5609;BME280;2826;51.354;9.588;2023-02-28T08:03:24;99453.88;;;2.11;53.17
5609;BME280;2826;51.354;9.588;2023-02-28T08:05:51;99459.09;;;2.19;52.60
5609;BME280;2826;51.354;9.588;2023-02-28T08:08:18;99459.09;;;2.19;52.11
5609;BME280;2826;51.354;9.588;2023-02-28T08:10:45;99455.81;;;2.28;52.39
5609;BME280;2826;51.354;9.588;2023-02-28T08:13:12;99458.59;;;2.43;52.08
5609;BME280;2826;51.354;9.588;2023-02-28T08:15:40;99455.00;;;2.29;51.77
5609;BME280;2826;51.354;9.588;2023-02-28T08:18:07;99459.44;;;2.41;51.42
5609;BME280;2826;51.354;9.588;2023-02-28T08:20:35;99451.81;;;2.47;51.36
5609;BME280;2826;51.354;9.588;2023-02-28T08:23:01;99449.34;;;2.52;51.13
5609;BME280;2826;51.354;9.588;2023-02-28T08:25:28;99446.94;;;2.63;51.50
5609;BME280;2826;51.354;9.588;2023-02-28T08:27:56;99449.47;;;2.63;50.98
5609;BME280;2826;51.354;9.588;2023-02-28T08:30:23;99450.31;;;2.63;50.66
5609;BME280;2826;51.354;9.588;2023-02-28T08:32:51;99452.19;;;2.75;50.70
5609;BME280;2826;51.354;9.588;2023-02-28T08:35:17;99442.88;;;2.80;49.53
5609;BME280;2826;51.354;9.588;2023-02-28T08:37:47;99447.34;;;2.95;48.52
5609;BME280;2826;51.354;9.588;2023-02-28T08:40:13;99449.94;;;3.00;48.35
5609;BME280;2826;51.354;9.588;2023-02-28T08:42:43;99447.53;;;3.14;48.66
5609;BME280;2826;51.354;9.588;2023-02-28T08:45:10;99453.53;;;3.16;48.15
5609;BME280;2826;51.354;9.588;2023-02-28T08:47:37;99457.00;;;3.21;46.92
5609;BME280;2826;51.354;9.588;2023-02-28T08:50:04;99445.97;;;3.27;45.92
5609;BME280;2826;51.354;9.588;2023-02-28T08:52:31;99452.00;;;3.32;46.07
5609;BME280;2826;51.354;9.588;2023-02-28T08:54:59;99451.28;;;3.46;45.89
5609;BME280;2826;51.354;9.588;2023-02-28T08:57:26;99454.75;;;3.51;46.44
5609;BME280;2826;51.354;9.588;2023-02-28T08:59:52;99447.94;;;3.53;46.13
5609;BME280;2826;51.354;9.588;2023-02-28T09:02:19;99454.94;;;3.68;45.86
5609;BME280;2826;51.354;9.588;2023-02-28T09:04:46;99461.78;;;3.71;45.16
5609;BME280;2826;51.354;9.588;2023-02-28T09:07:13;99450.66;;;3.70;44.24
5609;BME280;2826;51.354;9.588;2023-02-28T09:09:39;99449.97;;;3.88;44.30
5609;BME280;2826;51.354;9.588;2023-02-28T09:12:21;99451.84;;;4.11;44.45
5609;BME280;2826;51.354;9.588;2023-02-28T09:14:48;99456.19;;;4.22;44.10
5609;BME280;2826;51.354;9.588;2023-02-28T09:17:15;99453.72;;;4.34;43.97
5609;BME280;2826;51.354;9.588;2023-02-28T09:19:41;99461.41;;;4.32;43.27
5609;BME280;2826;51.354;9.588;2023-02-28T09:22:08;99455.53;;;4.51;43.60
5609;BME280;2826;51.354;9.588;2023-02-28T09:24:36;99452.19;;;4.69;43.75
5609;BME280;2826;51.354;9.588;2023-02-28T09:27:03;99455.69;;;4.85;43.20
5609;BME280;2826;51.354;9.588;2023-02-28T09:29:32;99450.63;;;5.01;42.50
5609;BME280;2826;51.354;9.588;2023-02-28T09:31:59;99453.25;;;5.21;42.19
5609;BME280;2826;51.354;9.588;2023-02-28T09:34:27;99414.66;;;5.04;42.06
5609;BME280;2826;51.354;9.588;2023-02-28T09:36:56;99426.72;;;5.27;41.22
5609;BME280;2826;51.354;9.588;2023-02-28T09:39:23;99441.31;;;5.56;41.90
5609;BME280;2826;51.354;9.588;2023-02-28T09:41:52;99442.19;;;5.58;40.25
5609;BME280;2826;51.354;9.588;2023-02-28T09:44:24;99444.78;;;5.59;39.12
5609;BME280;2826;51.354;9.588;2023-02-28T09:46:58;99430.19;;;5.46;39.53
5609;BME280;2826;51.354;9.588;2023-02-28T09:49:33;99438.72;;;5.43;40.00
5609;BME280;2826;51.354;9.588;2023-02-28T09:52:04;99438.72;;;5.31;39.62
5609;BME280;2826;51.354;9.588;2023-02-28T09:54:35;99448.97;;;5.25;39.96
5609;BME280;2826;51.354;9.588;2023-02-28T09:57:07;99439.44;;;4.88;39.69
5609;BME280;2826;51.354;9.588;2023-02-28T09:59:44;99443.66;;;4.76;39.98
5609;BME280;2826;51.354;9.588;2023-02-28T10:02:30;99450.53;;;4.79;40.85
5609;BME280;2826;51.354;9.588;2023-02-28T10:05:08;99454.78;;;4.72;40.69
5609;BME280;2826;51.354;9.588;2023-02-28T10:07:50;99453.94;;;4.81;40.86
5609;BME280;2826;51.354;9.588;2023-02-28T10:10:23;99440.31;;;4.97;40.77
5609;BME280;2826;51.354;9.588;2023-02-28T10:12:54;99449.00;;;5.31;40.89
5609;BME280;2826;51.354;9.588;2023-02-28T10:15:23;99445.59;;;5.43;40.71
5609;BME280;2826;51.354;9.588;2023-02-28T10:17:55;99444.75;;;5.47;40.14
5609;BME280;2826;51.354;9.588;2023-02-28T10:20:24;99459.34;;;5.68;39.79
5609;BME280;2826;51.354;9.588;2023-02-28T10:22:58;99446.50;;;5.85;40.18
5609;BME280;2826;51.354;9.588;2023-02-28T10:25:33;99449.09;;;6.12;39.91
5609;BME280;2826;51.354;9.588;2023-02-28T10:28:08;99454.22;;;6.03;38.58
5609;BME280;2826;51.354;9.588;2023-02-28T10:30:38;99450.78;;;6.02;38.87
5609;BME280;2826;51.354;9.588;2023-02-28T10:33:16;99456.81;;;6.21;39.77
5609;BME280;2826;51.354;9.588;2023-02-28T10:35:44;99454.22;;;6.45;39.46
5609;BME280;2826;51.354;9.588;2023-02-28T10:38:16;99451.63;;;6.42;38.46
5609;BME280;2826;51.354;9.588;2023-02-28T10:40:43;99454.25;;;6.34;38.61
5609;BME280;2826;51.354;9.588;2023-02-28T10:43:20;99449.94;;;6.42;38.06
5609;BME280;2826;51.354;9.588;2023-02-28T10:45:56;99446.53;;;6.23;38.03
5609;BME280;2826;51.354;9.588;2023-02-28T10:48:30;99444.81;;;5.91;38.57
5609;BME280;2826;51.354;9.588;2023-02-28T10:50:57;99444.75;;;5.70;38.62
5609;BME280;2826;51.354;9.588;2023-02-28T10:53:33;99443.06;;;5.61;39.42
5609;BME280;2826;51.354;9.588;2023-02-28T10:56:02;99445.63;;;5.60;39.42
5609;BME280;2826;51.354;9.588;2023-02-28T10:58:30;99437.91;;;5.61;39.20
5609;BME280;2826;51.354;9.588;2023-02-28T11:00:59;99431.91;;;5.72;39.56
5609;BME280;2826;51.354;9.588;2023-02-28T11:03:32;99430.19;;;5.88;39.04
5609;BME280;2826;51.354;9.588;2023-02-28T11:06:06;99434.53;;;6.09;39.30
5609;BME280;2826;51.354;9.588;2023-02-28T11:08:34;99431.94;;;6.20;38.68
5609;BME280;2826;51.354;9.588;2023-02-28T11:11:03;99428.50;;;6.20;38.48
5609;BME280;2826;51.354;9.588;2023-02-28T11:13:33;99428.47;;;6.18;38.89
5609;BME280;2826;51.354;9.588;2023-02-28T11:16:04;99425.06;;;6.27;38.65
5609;BME280;2826;51.354;9.588;2023-02-28T11:18:39;99424.16;;;6.39;39.42
5609;BME280;2826;51.354;9.588;2023-02-28T11:21:08;99422.38;;;6.66;39.21
5609;BME280;2826;51.354;9.588;2023-02-28T11:23:37;99370.06;;;6.39;38.99
5609;BME280;2826;51.354;9.588;2023-02-28T11:26:07;99422.38;;;6.60;37.74
5609;BME280;2826;51.354;9.588;2023-02-28T11:28:37;99419.75;;;6.72;38.39
5609;BME280;2826;51.354;9.588;2023-02-28T11:31:14;99417.13;;;6.82;37.43
5609;BME280;2826;51.354;9.588;2023-02-28T11:33:44;99412.03;;;6.74;37.83
5609;BME280;2826;51.354;9.588;2023-02-28T11:36:14;99390.56;;;6.67;37.63
5609;BME280;2826;51.354;9.588;2023-02-28T11:38:41;99417.19;;;6.80;37.89
5609;BME280;2826;51.354;9.588;2023-02-28T11:41:18;99412.91;;;6.73;38.05
5609;BME280;2826;51.354;9.588;2023-02-28T11:44:08;99400.88;;;6.64;38.22
5609;BME280;2826;51.354;9.588;2023-02-28T11:46:43;99401.72;;;6.80;37.43
5609;BME280;2826;51.354;9.588;2023-02-28T11:49:27;99412.91;;;6.74;37.82
5609;BME280;2826;51.354;9.588;2023-02-28T11:52:00;99404.28;;;6.72;38.39
5609;BME280;2826;51.354;9.588;2023-02-28T11:54:35;99404.28;;;6.78;38.74
5609;BME280;2826;51.354;9.588;2023-02-28T11:57:20;99402.50;;;6.88;38.22
5609;BME280;2826;51.354;9.588;2023-02-28T11:59:59;99397.34;;;6.93;38.17
5609;BME280;2826;51.354;9.588;2023-02-28T12:02:51;99398.22;;;6.89;37.88
5609;BME280;2826;51.354;9.588;2023-02-28T12:05:28;99389.59;;;6.91;38.27
5609;BME280;2826;51.354;9.588;2023-02-28T12:08:04;99388.69;;;7.02;38.07
5609;BME280;2826;51.354;9.588;2023-02-28T12:10:37;99390.38;;;7.04;39.29
5609;BME280;2826;51.354;9.588;2023-02-28T12:13:17;99393.94;;;6.82;38.45
5609;BME280;2826;51.354;9.588;2023-02-28T12:16:13;99396.41;;;7.08;38.73
5609;BME280;2826;51.354;9.588;2023-02-28T12:18:52;99392.09;;;7.09;37.96
5609;BME280;2826;51.354;9.588;2023-02-28T12:21:28;99380.88;;;7.11;37.98
5609;BME280;2826;51.354;9.588;2023-02-28T12:24:12;99393.75;;;7.19;38.53
5609;BME280;2826;51.354;9.588;2023-02-28T12:26:43;99397.06;;;7.40;37.82
5609;BME280;2826;51.354;9.588;2023-02-28T12:29:15;99379.84;;;7.45;37.76
5609;BME280;2826;51.354;9.588;2023-02-28T12:31:49;99381.41;;;7.63;38.56
5609;BME280;2826;51.354;9.588;2023-02-28T12:34:18;99386.38;;;7.87;37.56
5609;BME280;2826;51.354;9.588;2023-02-28T12:36:50;99377.94;;;7.66;36.81
5609;BME280;2826;51.354;9.588;2023-02-28T12:39:23;99373.63;;;7.68;37.25
5609;BME280;2826;51.354;9.588;2023-02-28T12:41:54;99373.66;;;7.60;36.69
5609;BME280;2826;51.354;9.588;2023-02-28T12:44:27;99376.06;;;7.85;36.89
5609;BME280;2826;51.354;9.588;2023-02-28T12:46:57;99370.03;;;7.84;37.32
5609;BME280;2826;51.354;9.588;2023-02-28T12:49:31;99370.88;;;7.90;36.31
5609;BME280;2826;51.354;9.588;2023-02-28T12:52:02;99347.91;;;7.58;36.35
5609;BME280;2826;51.354;9.588;2023-02-28T12:54:33;99348.72;;;7.64;36.44
5609;BME280;2826;51.354;9.588;2023-02-28T12:57:07;99364.13;;;7.68;37.50
5609;BME280;2826;51.354;9.588;2023-02-28T12:59:40;99369.38;;;7.61;36.16
5609;BME280;2826;51.354;9.588;2023-02-28T13:02:33;99365.81;;;7.77;37.05
5609;BME280;2826;51.354;9.588;2023-02-28T13:05:35;99366.53;;;7.89;36.86
5609;BME280;2826;51.354;9.588;2023-02-28T13:08:28;99367.34;;;7.97;36.32
5609;BME280;2826;51.354;9.588;2023-02-28T13:11:01;99354.38;;;8.03;36.67
5609;BME280;2826;51.354;9.588;2023-02-28T13:13:29;99357.66;;;8.19;37.21
5609;BME280;2826;51.354;9.588;2023-02-28T13:16:03;99355.09;;;8.15;36.36
5609;BME280;2826;51.354;9.588;2023-02-28T13:18:32;99344.78;;;8.15;36.23
5609;BME280;2826;51.354;9.588;2023-02-28T13:21:01;99342.28;;;8.07;36.01
5609;BME280;2826;51.354;9.588;2023-02-28T13:23:58;99355.03;;;8.21;36.63
5609;BME280;2826;51.354;9.588;2023-02-28T13:29:30;99340.03;;;8.54;36.44
5609;BME280;2826;51.354;9.588;2023-02-28T13:32:28;99348.38;;;8.76;36.36
5609;BME280;2826;51.354;9.588;2023-02-28T13:35:17;99345.69;;;8.86;36.59
5609;BME280;2826;51.354;9.588;2023-02-28T13:38:24;99349.13;;;8.85;35.66
5609;BME280;2826;51.354;9.588;2023-02-28T13:40:52;99342.16;;;8.90;34.81
5609;BME280;2826;51.354;9.588;2023-02-28T13:43:19;99337.31;;;8.67;35.33
5609;BME280;2826;51.354;9.588;2023-02-28T13:46:06;99330.25;;;8.76;35.70
5609;BME280;2826;51.354;9.588;2023-02-28T13:48:36;99324.38;;;8.68;36.34
5609;BME280;2826;51.354;9.588;2023-02-28T13:51:34;99324.25;;;8.78;35.98
5609;BME280;2826;51.354;9.588;2023-02-28T13:54:18;99327.75;;;8.73;36.27
5609;BME280;2826;51.354;9.588;2023-02-28T13:56:56;99309.53;;;8.81;36.93
5609;BME280;2826;51.354;9.588;2023-02-28T13:59:33;99310.25;;;8.91;36.58